Terminal Aerodrome Forecast
Issued by NWS

Home | Current Version | Previous Version | Graphics & Text | Print | Product List | Glossary On
Versions: 1 2 3 4 5 6 7 8 9 10 11 12 13 14 15 16 17
000
FTUS43 KMPX 201100
TAFAXN
TAF
KAXN 201120Z 2012/2112 18011KT 4SM BR OVC006
      TEMPO 2012/2016 2SM BR OVC004
     FM201800 18010KT 5SM BR OVC007
     FM202000 16010KT 6SM HZ OVC012
     FM210200 17010KT 4SM BR OVC007=

USA.gov is the U.S. government's official web portal to all federal, state and local government web resources and services.